Aérodrome :
LOGIN :

S'inscrire | Disclaimer

   EN    FR    IT 

 










Légende :    VFR   VFR Marginal   IFR   IFR Intensif   IFR Très Intensif
Visi : 
Plafond : 
>= 8 km
>= 3000ft
5 à 8 km
1000 à 3000 ft
1500m à 5 km
500 à 1000 ft
800 à 1500m
200 à 500 ft
< 800m
< 200 ft
Symboles :   Orages  Brouillard  Fortes neiges  Fortes précipitations  Vent > 20 kt
SIGMETs :   Divers  Orages  Givrage  Turbulence  Onde Orograph.  Cendres Volcan.






- Altitude de l'aérodrome : 87 ft
- Code IATA : FSC


LFKF - Figari

DERNIER METAR :
  • 271130Z AUTO 06018G28KT 030V090 CAVOK 24/07 Q1027

METARs EXPIRÉS :
  • 271100Z AUTO 07016KT 030V110 CAVOK 23/09 Q1027
  • 271030Z AUTO 07015G26KT 030V100 CAVOK 23/08 Q1028
  • 271000Z AUTO 07015KT 030V110 CAVOK 23/08 Q1027
  • 270930Z AUTO 09012KT 050V130 CAVOK 23/07 Q1027 TEMPO 06015G25KT
  • 270900Z AUTO 08012KT 040V110 CAVOK 22/09 Q1027 TEMPO 06015G25KT

TAF TAF LFKF
Valide du 27 à 03h jusqu'au 28 à 03h UTC


270200Z 2703/2803 05005KT CAVOK
TEMPO 2703/2715 06015G25KT



MET'MAP, la Météo Aéronautique d'un coup d'oeil ! - Copyright ORBIFLY Décembre 2007 - Disclaimer

ORBIFLY MET'MAP TEAM :

Programmation & Développement : Alexandra Zaïnal
Sur une idée originale de : Baudouin d'Aumeries
Assistance à la programmation : Marc-Olivier Méhu
Soutien technique & logistique : Manuel Goepfert

Contact : metmap@orbifly.com




SOURCES & CREDITS :

   NOAA